Time;durP1;ratioP1;P1;durP2;ratioP2;P2;SDS_P1;SDS_P2;PMS_P1;PMS_P2;Temp;Humidity;BMP_temperature;BMP_pressure;BME280_temperature;BME280_humidity;BME280_pressure;Samples;Min_cycle;Max_cycle;Signal;HPM_P1;HPM_P2
2021/04/28 00:00:18;;;;;;;11.63;5.67;;;;;;;6.81;50.17;95145.13;5055240;28;20116;-75
2021/04/28 00:02:44;;;;;;;9.03;5.53;;;;;;;6.82;50.34;95147.56;5049508;28;20520;-75
2021/04/28 00:05:11;;;;;;;10.63;5.53;;;;;;;6.75;50.65;95145.78;5066905;28;20020;-76
2021/04/28 00:07:37;;;;;;;10.47;5.73;;;;;;;6.73;50.50;95143.31;5067032;28;20036;-76
2021/04/28 00:10:06;;;;;;;8.30;5.00;;;;;;;6.70;50.80;95142.81;5055132;28;20033;-75
2021/04/28 00:12:32;;;;;;;9.80;5.00;;;;;;;6.59;51.20;95141.34;5050131;28;20028;-76
2021/04/28 00:14:57;;;;;;;9.70;5.20;;;;;;;6.58;51.26;95150.16;5063646;28;20485;-75
2021/04/28 00:17:23;;;;;;;8.63;4.80;;;;;;;6.56;50.88;95145.09;5047677;28;20033;-75
2021/04/28 00:19:49;;;;;;;9.93;5.23;;;;;;;6.58;51.05;95142.31;5074801;28;20036;-75
2021/04/28 00:22:15;;;;;;;9.73;5.33;;;;;;;6.62;51.15;95143.63;5060448;28;20059;-76
2021/04/28 00:24:41;;;;;;;9.20;4.80;;;;;;;6.46;51.53;95141.00;5063843;28;20030;-75
2021/04/28 00:27:06;;;;;;;9.47;4.80;;;;;;;6.47;51.50;95137.41;5053802;28;20029;-76
2021/04/28 00:29:32;;;;;;;11.37;5.40;;;;;;;6.51;51.10;95138.72;5050687;28;20028;-75
2021/04/28 00:31:58;;;;;;;9.80;5.07;;;;;;;6.48;51.64;95131.22;5070258;28;20409;-75
2021/04/28 00:34:24;;;;;;;10.03;5.37;;;;;;;6.37;52.30;95127.94;5059752;28;20025;-76
2021/04/28 00:36:51;;;;;;;10.10;4.97;;;;;;;6.42;52.12;95132.66;5059477;28;20032;-75
2021/04/28 00:39:17;;;;;;;9.77;5.30;;;;;;;6.38;51.69;95137.41;5059054;28;20029;-76
2021/04/28 00:41:43;;;;;;;10.70;5.13;;;;;;;6.38;52.20;95121.72;5061350;28;20031;-76
2021/04/28 00:44:10;;;;;;;8.90;5.00;;;;;;;6.31;52.37;95128.56;5057839;28;20638;-76
2021/04/28 00:46:37;;;;;;;15.17;5.47;;;;;;;6.24;53.05;95127.56;5059455;28;20063;-75
2021/04/28 00:49:03;;;;;;;8.13;4.97;;;;;;;6.30;52.67;95126.09;5057222;28;20063;-75
2021/04/28 00:51:29;;;;;;;9.37;5.13;;;;;;;6.32;53.19;95119.75;5052209;28;20406;-76
2021/04/28 00:53:55;;;;;;;13.23;5.63;;;;;;;6.31;53.20;95125.16;5077338;28;20048;-75
2021/04/28 00:56:21;;;;;;;10.30;5.30;;;;;;;6.20;53.96;95123.63;5056433;28;20893;-76
2021/04/28 00:58:47;;;;;;;12.40;5.47;;;;;;;6.18;53.51;95123.00;5065021;28;20046;-76
2021/04/28 01:01:13;;;;;;;9.90;5.33;;;;;;;6.20;53.67;95126.25;5061252;28;20036;-75
2021/04/28 01:03:40;;;;;;;11.47;5.07;;;;;;;6.25;54.15;95118.75;5057598;28;20100;-75
2021/04/28 01:06:07;;;;;;;11.87;6.23;;;;;;;6.29;54.43;95121.88;5060331;28;20060;-75
2021/04/28 01:08:34;;;;;;;8.83;5.30;;;;;;;6.32;54.40;95124.97;5075298;28;20025;-75
2021/04/28 01:11:02;;;;;;;9.53;5.40;;;;;;;6.36;54.58;95115.03;5058285;28;20052;-76
2021/04/28 01:13:30;;;;;;;12.23;6.07;;;;;;;6.41;54.29;95117.16;5058462;28;20025;-75
2021/04/28 01:15:57;;;;;;;11.13;6.03;;;;;;;6.36;54.63;95123.66;5058980;28;20028;-76
2021/04/28 01:18:23;;;;;;;9.00;5.93;;;;;;;6.27;54.76;95116.81;5051359;28;20028;-75
2021/04/28 01:20:50;;;;;;;10.27;5.40;;;;;;;6.34;54.93;95109.16;5064062;28;20054;-76
2021/04/28 01:23:16;;;;;;;13.00;6.47;;;;;;;6.43;55.04;95104.75;5058380;28;20024;-77
2021/04/28 01:52:16;;;;;;;13.87;5.43;;;;;;;6.66;56.79;95113.59;5055655;28;20062;-75
2021/04/28 01:54:46;;;;;;;12.40;6.00;;;;;;;6.68;56.88;95108.22;5065429;28;20064;-76
2021/04/28 01:57:16;;;;;;;9.63;5.90;;;;;;;6.67;56.63;95109.97;5061713;28;20517;-76
2021/04/28 02:00:00;;;;;;;12.48;5.95;;;;;;;6.75;56.56;95106.59;5045088;28;20482;-75
2021/04/28 02:02:47;;;;;;;12.20;6.30;;;;;;;6.78;56.39;95108.88;5062142;28;20033;-75
2021/04/28 02:05:13;;;;;;;13.50;5.70;;;;;;;6.84;56.32;95109.03;5056293;28;20052;-75
2021/04/28 02:07:42;;;;;;;14.20;5.87;;;;;;;6.73;56.69;95101.50;5051535;28;20040;-75
2021/04/28 02:10:09;;;;;;;13.43;5.80;;;;;;;6.74;57.03;95102.31;5054072;28;20527;-75
2021/04/28 02:12:35;;;;;;;13.87;5.97;;;;;;;6.75;56.90;95098.75;5057588;28;20576;-75
2021/04/28 02:15:05;;;;;;;11.33;6.23;;;;;;;6.75;56.90;95102.16;5056622;28;20410;-75
2021/04/28 02:17:34;;;;;;;10.20;6.55;;;;;;;6.80;57.07;95106.91;5064292;28;20040;-76
2021/04/28 02:20:08;;;;;;;11.37;6.60;;;;;;;6.82;56.50;95100.53;5048556;28;20055;-76
2021/04/28 02:22:41;;;;;;;10.97;5.50;;;;;;;6.81;56.90;95100.72;5073187;28;20086;-76
2021/04/28 02:25:16;;;;;;;9.43;5.67;;;;;;;6.74;57.16;95097.94;5055561;28;20020;-75
2021/04/28 02:27:53;;;;;;;10.80;6.03;;;;;;;6.75;57.43;95091.72;5055904;28;20493;-76
2021/04/28 02:30:22;;;;;;;10.87;5.93;;;;;;;6.68;58.46;95093.34;5044710;28;20039;-75
2021/04/28 02:32:49;;;;;;;10.37;6.20;;;;;;;6.63;57.91;95087.78;5059291;28;20426;-75
2021/04/28 02:35:34;;;;;;;10.83;5.97;;;;;;;6.63;58.58;95087.78;5068149;28;20670;-76
2021/04/28 02:38:23;;;;;;;14.97;6.60;;;;;;;6.68;58.55;95082.09;5069169;28;20882;-75
2021/04/28 02:40:53;;;;;;;10.77;6.33;;;;;;;6.69;58.76;95084.53;5067159;28;20436;-75
2021/04/28 02:43:20;;;;;;;12.50;6.10;;;;;;;6.62;58.93;95083.56;5048163;28;20447;-76
2021/04/28 02:46:01;;;;;;;12.77;6.37;;;;;;;6.59;58.79;95076.03;5051634;28;20468;-75
2021/04/28 02:48:28;;;;;;;14.40;6.37;;;;;;;6.63;59.27;95077.34;5060301;28;20559;-76
2021/04/28 02:51:14;;;;;;;10.50;6.33;;;;;;;6.55;59.54;95077.34;5057406;28;20031;-76
2021/04/28 02:53:45;;;;;;;13.07;6.50;;;;;;;6.55;59.56;95078.16;5056966;28;21045;-75
2021/04/28 02:56:12;;;;;;;11.33;6.57;;;;;;;6.56;59.67;95078.97;5056628;28;20565;-76
2021/04/28 02:58:39;;;;;;;13.30;7.20;;;;;;;6.61;59.78;95068.88;5058909;28;20498;-75
2021/04/28 03:01:09;;;;;;;15.07;6.37;;;;;;;6.58;59.95;95067.38;5063436;28;20459;-76
2021/04/28 03:03:39;;;;;;;12.23;7.50;;;;;;;6.49;60.16;95063.13;5046987;28;20490;-75
2021/04/28 03:06:14;;;;;;;12.17;6.57;;;;;;;6.52;60.41;95067.22;5041724;28;20454;-75
2021/04/28 03:08:56;;;;;;;13.07;7.18;;;;;;;6.44;60.97;95064.59;5055603;28;20102;-75
2021/04/28 03:11:22;;;;;;;11.87;6.60;;;;;;;6.51;60.15;95063.00;5061323;28;20632;-75
2021/04/28 03:13:49;;;;;;;12.03;8.33;;;;;;;6.58;60.41;95066.56;5053985;28;20542;-75
2021/04/28 03:16:16;;;;;;;16.33;10.77;;;;;;;6.51;60.63;95069.03;5051517;28;20059;-76
2021/04/28 03:18:42;;;;;;;17.23;10.50;;;;;;;6.52;61.03;95072.44;5072475;28;20482;-75
2021/04/28 03:21:12;;;;;;;18.87;11.20;;;;;;;6.49;61.40;95075.38;5041720;28;20465;-76
2021/04/28 03:23:41;;;;;;;13.87;9.50;;;;;;;6.46;61.12;95067.88;5058440;28;20489;-75
2021/04/28 03:26:10;;;;;;;13.47;8.40;;;;;;;6.53;61.31;95079.28;5047237;28;20107;-76
2021/04/28 03:28:37;;;;;;;13.37;7.43;;;;;;;6.48;61.10;95079.78;5043268;28;20115;-75
2021/04/28 03:31:04;;;;;;;13.87;6.70;;;;;;;6.43;61.35;95083.84;5057790;28;20439;-75
2021/04/28 03:33:30;;;;;;;13.53;7.07;;;;;;;6.42;61.30;95071.78;5055929;28;20463;-75
2021/04/28 03:36:26;;;;;;;12.97;7.73;;;;;;;6.38;61.78;95074.72;5039151;28;21194;-75
2021/04/28 03:39:01;;;;;;;15.40;8.03;;;;;;;6.29;62.46;95072.25;5056301;28;21014;-75
2021/04/28 03:41:28;;;;;;;12.10;7.13;;;;;;;6.33;61.94;95079.59;5048720;28;20471;-75
2021/04/28 03:43:56;;;;;;;11.47;7.33;;;;;;;6.29;62.15;95077.47;5037742;28;20470;-75
2021/04/28 03:46:22;;;;;;;13.40;7.43;;;;;;;6.26;62.80;95069.97;5052562;28;20471;-75
2021/04/28 03:48:51;;;;;;;13.53;8.10;;;;;;;6.18;62.88;95076.00;5078954;28;20475;-76
2021/04/28 03:51:20;;;;;;;13.70;8.33;;;;;;;6.17;63.21;95077.00;5046811;28;20505;-75
2021/04/28 03:54:14;;;;;;;12.83;7.90;;;;;;;6.17;62.59;95079.59;5041626;28;20068;-75
2021/04/28 03:56:41;;;;;;;14.37;9.07;;;;;;;6.22;62.89;95081.72;5051326;28;20463;-76
2021/04/28 03:59:08;;;;;;;13.40;8.10;;;;;;;6.10;63.30;95082.03;5065447;28;20446;-75
2021/04/28 04:01:34;;;;;;;16.83;8.27;;;;;;;6.12;63.14;95076.63;5063165;28;20453;-75
2021/04/28 04:04:03;;;;;;;11.63;8.07;;;;;;;6.07;63.48;95084.13;5045212;28;20440;-75
2021/04/28 04:06:35;;;;;;;11.80;7.67;;;;;;;6.06;63.94;95077.28;5057672;28;20431;-75
2021/04/28 04:09:38;;;;;;;13.98;8.52;;;;;;;6.12;63.35;95079.25;5001115;28;20473;-75
2021/04/28 04:12:05;;;;;;;14.27;9.00;;;;;;;5.95;64.18;95075.78;5027084;28;20028;-75
2021/04/28 04:14:58;;;;;;;16.10;9.27;;;;;;;5.94;64.57;95075.94;5062169;28;20463;-75
2021/04/28 04:17:24;;;;;;;13.83;8.43;;;;;;;6.00;64.16;95075.28;5066479;28;20472;-75
2021/04/28 04:20:05;;;;;;;14.23;7.80;;;;;;;6.06;63.96;95078.09;5054509;28;20855;-76
2021/04/28 04:22:50;;;;;;;12.87;8.47;;;;;;;6.08;64.05;95080.56;5067611;28;20441;-75
2021/04/28 04:25:34;;;;;;;11.93;8.43;;;;;;;6.08;64.04;95080.56;5044916;28;20800;-75
2021/04/28 04:28:00;;;;;;;12.87;8.17;;;;;;;6.11;63.63;95081.03;5050295;28;20459;-74
2021/04/28 04:30:47;;;;;;;12.83;8.17;;;;;;;6.17;63.67;95082.22;5058518;28;20172;-74
2021/04/28 04:33:32;;;;;;;12.83;9.03;;;;;;;6.17;63.91;95079.59;5060364;28;20529;-75
2021/04/28 04:36:20;;;;;;;14.63;8.23;;;;;;;6.16;63.92;95080.56;5055376;28;20494;-74
2021/04/28 04:39:18;;;;;;;16.17;8.57;;;;;;;6.25;63.50;95077.00;5023994;28;20436;-75
2021/04/28 04:42:04;;;;;;;14.50;8.80;;;;;;;6.16;64.34;95077.13;5049473;28;20462;-75
2021/04/28 04:44:45;;;;;;;15.27;8.97;;;;;;;6.15;64.30;95081.53;5056870;28;20556;-77
2021/04/28 04:47:13;;;;;;;14.50;8.90;;;;;;;6.18;64.23;95086.44;5058313;28;20451;-76
2021/04/28 04:49:39;;;;;;;11.10;8.50;;;;;;;6.31;64.12;95080.75;5060001;28;20453;-75
2021/04/28 04:52:06;;;;;;;13.43;8.83;;;;;;;6.30;63.86;95085.13;5068030;28;20024;-74
2021/04/28 04:54:32;;;;;;;13.67;8.60;;;;;;;6.31;64.29;95080.75;5070970;28;20455;-75
2021/04/28 04:56:58;;;;;;;13.40;8.93;;;;;;;6.41;64.51;95080.59;5058093;28;20817;-76
2021/04/28 04:59:24;;;;;;;14.97;8.57;;;;;;;6.57;63.12;95077.97;5048038;28;20029;-75
2021/04/28 05:01:51;;;;;;;14.23;9.13;;;;;;;6.58;63.82;95090.09;5054368;28;20120;-75
2021/04/28 05:04:16;;;;;;;15.40;8.77;;;;;;;6.77;63.39;95087.16;5071921;28;20095;-76
2021/04/28 05:06:42;;;;;;;16.17;8.87;;;;;;;6.87;62.96;95091.38;5059624;28;20178;-75
2021/04/28 05:09:08;;;;;;;12.70;8.83;;;;;;;6.95;62.78;95088.78;5060506;28;20025;-74
2021/04/28 05:11:34;;;;;;;18.33;9.47;;;;;;;7.11;62.58;95086.13;5056543;28;20139;-76
2021/04/28 05:13:59;;;;;;;15.47;10.73;;;;;;;7.16;62.37;95081.22;5062399;28;20025;-76
2021/04/28 05:16:27;;;;;;;16.07;10.00;;;;;;;7.41;62.15;95083.75;5059347;28;20032;-75
2021/04/28 05:18:53;;;;;;;15.93;8.93;;;;;;;7.48;62.07;95079.53;5046914;28;20037;-76
2021/04/28 05:21:18;;;;;;;13.30;9.57;;;;;;;7.42;61.72;95080.19;5071907;28;20092;-76
2021/04/28 05:23:44;;;;;;;15.90;9.67;;;;;;;7.48;62.27;95084.75;5066480;28;20017;-77
2021/04/28 05:26:42;;;;;;;15.73;10.30;;;;;;;7.60;61.54;95077.34;5053188;28;20045;-75
2021/04/28 05:29:08;;;;;;;15.53;10.13;;;;;;;7.74;61.02;95082.66;5043147;28;20035;-75
2021/04/28 05:31:34;;;;;;;17.30;9.47;;;;;;;7.93;60.73;95083.25;5069087;28;20028;-75
2021/04/28 05:34:00;;;;;;;14.20;9.40;;;;;;;8.33;59.72;95074.34;5059193;28;20036;-75
2021/04/28 05:36:26;;;;;;;14.97;9.07;;;;;;;8.28;58.85;95087.13;5075253;28;20071;-75
2021/04/28 05:38:55;;;;;;;14.10;8.47;;;;;;;8.11;59.49;95085.59;5057549;28;20068;-75
2021/04/28 05:41:21;;;;;;;16.47;8.20;;;;;;;8.58;58.38;95082.06;5048969;28;20094;-76
2021/04/28 05:43:47;;;;;;;12.87;8.33;;;;;;;8.54;58.50;95076.38;5075761;28;20040;-77
2021/04/28 05:46:13;;;;;;;10.93;7.83;;;;;;;8.97;57.63;95072.25;5060775;28;20024;-77
2021/04/28 05:48:40;;;;;;;13.20;8.47;;;;;;;8.97;57.35;95076.69;5034539;28;20088;-77
2021/04/28 05:51:06;;;;;;;13.13;8.23;;;;;;;8.90;56.99;95076.56;5051928;28;20454;-77
2021/04/28 05:53:33;;;;;;;12.90;9.17;;;;;;;9.31;56.69;95078.00;5063321;28;20028;-77
2021/04/28 05:56:06;;;;;;;15.23;8.57;;;;;;;9.39;55.82;95077.94;5074011;28;20220;-76
2021/04/28 05:58:32;;;;;;;12.73;8.82;;;;;;;9.08;56.68;95078.06;5054622;28;20045;-75
2021/04/28 06:00:58;;;;;;;13.60;9.53;;;;;;;9.57;55.54;95073.13;5059187;28;20109;-76
2021/04/28 06:03:24;;;;;;;15.80;8.77;;;;;;;9.89;54.37;95061.44;5046445;28;20032;-76
2021/04/28 06:05:51;;;;;;;12.50;7.93;;;;;;;9.79;54.66;95065.31;5053181;28;20021;-76
2021/04/28 06:08:17;;;;;;;15.07;9.63;;;;;;;9.95;54.10;95078.25;5053496;28;20111;-77
2021/04/28 06:10:43;;;;;;;15.70;9.40;;;;;;;10.04;54.45;95071.91;5050904;28;20032;-77
2021/04/28 06:13:10;;;;;;;14.23;9.30;;;;;;;9.96;54.25;95072.03;5052336;28;20098;-76
2021/04/28 06:15:37;;;;;;;12.27;7.77;;;;;;;10.45;52.96;95079.25;5053207;28;20040;-76
2021/04/28 06:18:06;;;;;;;12.63;8.60;;;;;;;10.18;53.65;95072.88;5043774;28;20036;-76
2021/04/28 06:20:33;;;;;;;12.33;8.30;;;;;;;10.41;53.08;95070.13;5047097;28;20028;-76
2021/04/28 06:22:59;;;;;;;12.43;8.57;;;;;;;10.75;53.06;95071.25;5054552;28;20037;-76
2021/04/28 06:25:26;;;;;;;13.13;9.00;;;;;;;10.97;52.49;95064.97;5052806;28;20045;-77
2021/04/28 06:27:52;;;;;;;14.90;8.07;;;;;;;11.21;51.29;95066.38;5052868;28;20027;-76
2021/04/28 06:30:18;;;;;;;13.00;8.67;;;;;;;11.23;51.81;95068.78;5067476;28;20021;-76
2021/04/28 06:32:45;;;;;;;12.57;8.67;;;;;;;11.72;51.63;95065.25;5059104;28;20494;-76
2021/04/28 06:35:13;;;;;;;12.43;9.17;;;;;;;11.80;50.53;95065.09;5041843;28;20035;-76
2021/04/28 06:37:38;;;;;;;15.57;9.07;;;;;;;12.13;50.56;95061.81;5051568;28;20040;-77
2021/04/28 06:40:06;;;;;;;14.30;8.43;;;;;;;12.46;49.09;95062.72;5051195;28;20033;-76
2021/04/28 06:42:32;;;;;;;11.83;7.97;;;;;;;12.76;49.42;95064.19;5045911;28;20105;-76
2021/04/28 06:44:58;;;;;;;12.20;8.77;;;;;;;12.78;48.15;95063.00;5065298;28;20541;-77
2021/04/28 06:47:24;;;;;;;14.93;10.30;;;;;;;13.71;46.81;95062.94;5059922;28;20035;-77
2021/04/28 06:49:51;;;;;;;15.20;9.70;;;;;;;13.50;47.42;95060.56;5059547;28;20071;-77
2021/04/28 06:52:17;;;;;;;18.40;9.30;;;;;;;13.77;45.46;95059.47;5052025;28;20052;-76
2021/04/28 06:54:43;;;;;;;13.00;8.57;;;;;;;13.77;45.12;95059.47;5065054;28;20056;-77
2021/04/28 06:57:09;;;;;;;14.77;8.80;;;;;;;13.26;46.80;95067.28;5059712;28;20029;-77
2021/04/28 06:59:35;;;;;;;13.77;8.50;;;;;;;13.98;45.41;95055.72;5054414;28;20044;-77
2021/04/28 07:02:01;;;;;;;13.50;8.50;;;;;;;14.19;44.40;95054.66;5062823;28;20024;-77
2021/04/28 07:04:28;;;;;;;15.70;9.03;;;;;;;15.44;41.74;95060.13;5054730;28;20112;-77
2021/04/28 07:06:54;;;;;;;14.50;9.20;;;;;;;14.45;44.25;95053.69;5063208;28;20553;-77
2021/04/28 07:09:19;;;;;;;12.03;8.80;;;;;;;14.45;44.45;95053.69;5040528;28;20035;-76
2021/04/28 07:11:46;;;;;;;12.47;8.30;;;;;;;14.87;43.43;95061.22;5041371;28;20032;-76
2021/04/28 07:14:12;;;;;;;13.77;8.33;;;;;;;14.67;42.96;95056.06;5029881;28;20041;-77
2021/04/28 07:16:39;;;;;;;13.07;8.30;;;;;;;14.55;43.06;95048.81;5044186;28;20108;-76
2021/04/28 07:19:06;;;;;;;13.73;8.53;;;;;;;14.75;42.66;95048.66;5047344;28;20016;-77
2021/04/28 07:21:32;;;;;;;11.93;8.20;;;;;;;15.49;41.44;95055.00;5066570;28;20045;-77
2021/04/28 07:24:00;;;;;;;16.07;8.27;;;;;;;14.93;41.98;95053.22;5040835;28;20512;-78
2021/04/28 07:26:29;;;;;;;11.87;7.80;;;;;;;14.88;42.18;95057.53;5062260;28;20037;-80
2021/04/28 07:28:55;;;;;;;12.10;8.10;;;;;;;14.44;42.41;95061.84;5056316;28;20060;-79
2021/04/28 07:31:21;;;;;;;12.60;8.07;;;;;;;15.61;39.60;95062.22;5072403;28;20045;-78
2021/04/28 07:33:47;;;;;;;12.00;7.60;;;;;;;14.99;40.97;95070.06;5058112;28;20139;-77
2021/04/28 07:36:14;;;;;;;11.93;7.50;;;;;;;15.62;39.20;95069.13;5061069;28;20066;-77
2021/04/28 07:38:41;;;;;;;10.37;6.97;;;;;;;15.25;39.82;95064.56;5048270;28;20111;-77
2021/04/28 07:41:07;;;;;;;12.27;7.20;;;;;;;15.90;38.89;95066.03;5057007;28;20067;-76
2021/04/28 07:43:33;;;;;;;12.70;7.20;;;;;;;16.65;36.66;95063.84;5056155;28;20059;-77
2021/04/28 07:45:59;;;;;;;10.63;7.53;;;;;;;16.69;38.22;95062.38;5058710;28;20617;-77
2021/04/28 07:48:26;;;;;;;14.10;7.60;;;;;;;16.80;37.21;95065.31;5059354;28;20017;-78
2021/04/28 07:50:52;;;;;;;12.63;9.03;;;;;;;16.29;37.90;95075.34;5058333;28;20072;-78
2021/04/28 07:53:18;;;;;;;11.23;8.40;;;;;;;16.62;37.14;95066.16;5048746;28;20037;-77
2021/04/28 07:55:46;;;;;;;14.43;7.97;;;;;;;15.65;38.93;95079.28;5048603;28;20033;-77
2021/04/28 07:58:14;;;;;;;11.57;7.97;;;;;;;15.90;38.05;95076.66;5050115;28;20524;-76
2021/04/28 08:00:40;;;;;;;11.13;7.80;;;;;;;15.64;38.74;95073.19;5048241;28;20048;-77
2021/04/28 08:03:06;;;;;;;11.33;7.77;;;;;;;15.86;37.46;95080.75;5063653;28;20736;-77
2021/04/28 08:05:32;;;;;;;11.53;7.93;;;;;;;15.85;38.05;95071.19;5048259;28;20023;-77
2021/04/28 08:07:58;;;;;;;10.70;7.10;;;;;;;16.50;36.15;95071.44;5055300;28;20033;-76
2021/04/28 08:10:24;;;;;;;11.13;7.67;;;;;;;15.53;37.71;95071.28;5063740;28;20134;-76
2021/04/28 08:12:49;;;;;;;11.33;6.77;;;;;;;15.88;36.82;95068.91;5047603;28;20029;-77
2021/04/28 08:15:15;;;;;;;11.77;7.30;;;;;;;16.26;36.83;95066.03;5054489;28;20108;-76
2021/04/28 08:17:42;;;;;;;9.73;6.90;;;;;;;16.89;35.35;95063.97;5054543;28;20032;-76
2021/04/28 08:20:10;;;;;;;10.83;7.83;;;;;;;17.46;34.34;95064.28;5046437;28;20029;-76
2021/04/28 08:22:36;;;;;;;16.00;8.07;;;;;;;17.87;33.36;95057.22;5049346;28;20614;-76
2021/04/28 08:25:04;;;;;;;13.77;7.53;;;;;;;17.88;33.68;95067.66;5058786;28;20111;-76
2021/04/28 08:27:30;;;;;;;11.90;7.60;;;;;;;16.16;36.21;95068.38;5051617;28;20024;-76
2021/04/28 08:29:56;;;;;;;12.13;6.97;;;;;;;16.63;35.50;95068.59;5051139;28;20474;-76
2021/04/28 08:32:22;;;;;;;10.37;7.40;;;;;;;17.26;34.74;95066.47;5045468;28;20143;-77
2021/04/28 08:34:48;;;;;;;9.37;6.90;;;;;;;17.57;34.37;95066.16;5054807;28;20040;-76
2021/04/28 08:37:14;;;;;;;12.13;7.37;;;;;;;17.33;35.28;95069.81;5054927;28;20092;-76
2021/04/28 08:39:40;;;;;;;10.60;7.30;;;;;;;18.11;33.26;95068.66;5048729;28;20033;-77
2021/04/28 08:42:06;;;;;;;10.73;7.43;;;;;;;17.26;35.20;95071.78;5049174;28;20025;-77
2021/04/28 08:44:32;;;;;;;14.07;7.43;;;;;;;18.21;33.72;95063.56;5058672;28;20464;-77
2021/04/28 08:46:58;;;;;;;11.77;7.67;;;;;;;18.50;31.75;95064.38;5064648;28;20025;-78
2021/04/28 08:49:24;;;;;;;13.30;7.43;;;;;;;19.10;30.95;95065.75;5050474;28;20041;-78
2021/04/28 08:51:51;;;;;;;11.70;7.43;;;;;;;19.28;30.02;95059.34;5058287;28;20036;-77
2021/04/28 08:54:17;;;;;;;11.70;7.57;;;;;;;19.45;30.35;95064.69;5059558;28;20090;-77
2021/04/28 08:56:50;;;;;;;13.30;7.37;;;;;;;18.08;32.45;95063.81;5069946;28;20028;-77
2021/04/28 08:59:17;;;;;;;15.77;7.65;;;;;;;18.60;32.13;95063.75;5069321;28;20044;-77
2021/04/28 09:01:45;;;;;;;12.75;7.82;;;;;;;19.16;31.46;95061.31;5068994;28;20056;-77
2021/04/28 09:04:14;;;;;;;10.82;6.97;;;;;;;19.22;31.83;95057.69;5051177;28;20216;-77
2021/04/28 09:06:40;;;;;;;14.18;8.15;;;;;;;19.68;30.45;95063.72;5072112;28;20024;-78
2021/04/28 09:09:08;;;;;;;13.82;7.60;;;;;;;19.39;31.59;95055.81;5055586;28;20033;-78
2021/04/28 09:11:43;;;;;;;14.75;6.97;;;;;;;19.80;30.93;95056.44;5072197;28;20028;-77
2021/04/28 09:14:18;;;;;;;16.55;7.13;;;;;;;20.47;29.59;95044.75;5060052;28;20440;-77
2021/04/28 09:16:45;;;;;;;10.07;6.70;;;;;;;18.69;32.33;95053.53;5071503;28;20599;-76
2021/04/28 09:19:45;;;;;;;13.55;7.90;;;;;;;20.21;29.90;95043.63;5056951;28;20123;-77
2021/04/28 09:22:33;;;;;;;12.82;7.68;;;;;;;20.36;30.48;95046.50;5063809;28;20037;-79
2021/04/28 09:25:36;;;;;;;11.27;7.55;;;;;;;20.00;30.24;95039.91;5052312;28;20051;-77
2021/04/28 09:28:32;;;;;;;10.00;7.20;;;;;;;19.55;31.79;95049.66;5050805;28;20048;-77
2021/04/28 09:31:08;;;;;;;11.23;7.03;;;;;;;20.43;30.89;95039.09;5034049;28;20040;-76
2021/04/28 09:33:51;;;;;;;13.52;7.25;;;;;;;19.42;31.82;95044.66;5034894;28;20041;-77
2021/04/28 09:36:32;;;;;;;12.20;8.02;;;;;;;18.32;33.50;95035.28;5065362;28;20059;-76
2021/04/28 09:39:06;;;;;;;12.00;8.18;;;;;;;19.08;32.85;95041.19;5059391;28;20132;-78
2021/04/28 09:41:46;;;;;;;12.73;7.15;;;;;;;20.02;30.84;95027.94;5053365;28;20036;-77
2021/04/28 09:44:20;;;;;;;11.88;7.05;;;;;;;19.39;31.61;95039.03;5054361;28;20041;-77
2021/04/28 09:47:18;;;;;;;9.65;7.13;;;;;;;19.94;31.24;95028.34;5069682;28;20028;-76
2021/04/28 09:50:01;;;;;;;12.95;7.22;;;;;;;19.12;32.23;95038.88;5053003;28;20131;-77
2021/04/28 09:52:30;;;;;;;14.10;7.43;;;;;;;19.84;30.82;95022.88;5065816;28;20025;-77
2021/04/28 09:55:12;;;;;;;15.77;7.55;;;;;;;19.09;31.26;95029.50;5054925;28;20044;-77
2021/04/28 09:57:43;;;;;;;13.93;6.95;;;;;;;20.40;29.54;95015.56;5052547;28;20047;-79
2021/04/28 10:00:19;;;;;;;11.13;7.10;;;;;;;19.94;31.19;95016.88;5033488;28;20060;-77
2021/04/28 10:02:58;;;;;;;9.43;6.13;;;;;;;21.24;29.22;95010.75;5078373;28;20107;-78
2021/04/28 10:05:30;;;;;;;12.85;7.63;;;;;;;21.44;27.89;95015.47;5052321;28;20166;-78
2021/04/28 10:08:08;;;;;;;11.55;7.07;;;;;;;21.09;29.09;95009.56;5076752;28;20045;-79
2021/04/28 10:10:35;;;;;;;11.27;6.72;;;;;;;21.76;28.17;95008.16;5084327;28;20047;-78
2021/04/28 10:13:01;;;;;;;13.52;7.40;;;;;;;21.96;27.39;95007.47;5057715;28;20033;-77
2021/04/28 10:15:27;;;;;;;10.52;7.82;;;;;;;22.40;27.36;95007.16;5064336;28;20497;-77
2021/04/28 10:17:55;;;;;;;12.43;7.60;;;;;;;22.42;26.60;95002.31;5057529;28;20128;-78
2021/04/28 10:20:21;;;;;;;12.02;7.18;;;;;;;22.52;26.27;94994.31;5049747;28;20088;-79
2021/04/28 10:22:49;;;;;;;17.83;8.02;;;;;;;22.52;26.01;95004.22;5044149;28;20033;-77
2021/04/28 10:25:17;;;;;;;11.75;7.40;;;;;;;22.24;26.06;94997.47;5045988;28;20032;-78
2021/04/28 10:27:44;;;;;;;12.18;7.47;;;;;;;21.86;27.07;95008.25;5064674;28;20551;-78
2021/04/28 10:30:15;;;;;;;11.05;7.68;;;;;;;23.75;24.91;94992.50;5060117;28;20036;-75
2021/04/28 10:32:42;;;;;;;15.32;8.05;;;;;;;23.08;24.88;95000.84;5066245;28;20036;-80
2021/04/28 10:35:08;;;;;;;11.10;7.50;;;;;;;22.92;25.68;94995.44;5060539;28;20036;-78
2021/04/28 10:37:36;;;;;;;10.45;7.40;;;;;;;22.66;25.94;94996.47;5072460;28;20036;-79
2021/04/28 10:40:23;;;;;;;11.45;7.60;;;;;;;22.87;25.32;94994.63;5062826;28;20031;-78
2021/04/28 10:42:50;;;;;;;11.23;7.20;;;;;;;22.09;26.07;94996.28;5076070;28;20033;-79
2021/04/28 10:45:19;;;;;;;12.85;8.05;;;;;;;21.99;26.06;94998.91;5061870;28;20038;-79
2021/04/28 10:47:46;;;;;;;11.40;7.47;;;;;;;22.83;24.86;94994.34;5058630;28;20032;-78
2021/04/28 10:50:23;;;;;;;10.25;7.60;;;;;;;22.09;25.72;94990.91;5058514;28;20053;-79
2021/04/28 10:53:02;;;;;;;14.38;7.57;;;;;;;23.97;23.48;94981.41;5051973;28;20375;-80
2021/04/28 10:55:46;;;;;;;11.68;7.40;;;;;;;25.29;22.27;94973.69;5058997;28;20063;-79
2021/04/28 10:58:32;;;;;;;17.10;8.85;;;;;;;23.25;24.00;94991.47;5050488;28;20120;-79
2021/04/28 11:01:01;;;;;;;12.40;8.63;;;;;;;22.28;25.72;94983.25;5051928;28;20481;-80
2021/04/28 11:03:34;;;;;;;14.27;8.13;;;;;;;22.19;26.03;94974.13;5065386;28;20031;-80
2021/04/28 11:06:22;;;;;;;13.55;7.93;;;;;;;23.18;24.82;94974.84;5041253;28;20423;-80
2021/04/28 11:08:54;;;;;;;11.93;7.55;;;;;;;23.65;24.82;94979.06;5055317;28;20037;-79
2021/04/28 11:14:09;;;;;;;11.48;6.63;;;;;;;25.22;22.67;94967.00;5073886;28;20589;-80
2021/04/28 11:16:42;;;;;;;12.65;8.20;;;;;;;24.17;22.74;94969.78;5068874;28;20038;-81
2021/04/28 11:19:27;;;;;;;;;;;;;;;23.40;23.09;94971.84;5059652;28;20044;-79
2021/04/28 11:22:08;;;;;;;14.93;7.97;;;;;;;24.70;21.66;94971.94;5042335;28;19995;-79
2021/04/28 11:24:59;;;;;;;12.45;8.55;;;;;;;25.35;22.42;94961.78;5050332;28;20039;-79
2021/04/28 11:27:41;;;;;;;13.98;8.43;;;;;;;25.04;22.19;94966.56;5066692;28;20115;-80
2021/04/28 11:30:38;;;;;;;11.10;7.67;;;;;;;23.76;22.65;94977.97;5044019;28;20033;-80
2021/04/28 11:33:11;;;;;;;10.88;7.20;;;;;;;24.38;22.05;94958.91;5047223;28;20508;-80
2021/04/28 11:36:06;;;;;;;12.60;7.25;;;;;;;24.56;22.41;94961.00;5059789;28;20370;-80
2021/04/28 11:38:34;;;;;;;11.77;7.53;;;;;;;23.53;24.25;94960.56;5064503;28;20095;-80
2021/04/28 11:41:03;;;;;;;12.55;7.68;;;;;;;23.82;23.84;94964.56;5062439;28;20028;-80
2021/04/28 11:43:31;;;;;;;10.98;7.80;;;;;;;23.86;24.45;94957.56;5057115;28;20083;-80
2021/04/28 11:46:09;;;;;;;10.45;7.75;;;;;;;22.91;25.17;94960.88;5052392;28;20657;-80
2021/04/28 11:48:36;;;;;;;12.95;7.78;;;;;;;22.89;24.28;94961.13;5050662;28;20100;-80
2021/04/28 11:51:06;;;;;;;12.43;7.72;;;;;;;23.00;24.54;94968.16;5058352;28;20029;-80
2021/04/28 11:53:32;;;;;;;11.27;7.38;;;;;;;22.34;25.45;94960.00;5052075;28;20097;-82
2021/04/28 11:55:58;;;;;;;12.77;7.88;;;;;;;22.54;25.18;94954.66;5041932;28;20017;-80
2021/04/28 11:58:27;;;;;;;17.25;7.75;;;;;;;21.75;26.74;94966.41;5050580;28;20037;-80
2021/04/28 12:01:08;;;;;;;11.23;7.68;;;;;;;20.37;29.26;94959.97;5066440;28;20032;-80
2021/04/28 12:04:00;;;;;;;11.73;7.15;;;;;;;20.59;29.66;94951.13;5050259;28;20071;-80
2021/04/28 12:06:42;;;;;;;10.95;7.43;;;;;;;20.60;28.94;94955.44;5057844;28;20032;-81
2021/04/28 12:09:46;;;;;;;12.57;7.37;;;;;;;20.55;28.77;94955.38;5059372;28;20064;-79
2021/04/28 12:12:19;;;;;;;10.93;7.47;;;;;;;21.19;27.62;94958.03;5037381;28;20044;-80
2021/04/28 12:15:06;;;;;;;13.68;7.15;;;;;;;20.75;29.25;94947.53;5056040;28;20033;-78